Time;durP1;ratioP1;P1;durP2;ratioP2;P2;SDS_P1;SDS_P2;PMS_P1;PMS_P2;Temp;Humidity;BMP_temperature;BMP_pressure;BME280_temperature;BME280_humidity;BME280_pressure;Samples;Min_cycle;Max_cycle;Signal;HPM_P1;HPM_P2
2022/07/16 00:03:32;;;;;;;;;;;18.40;72.10;;;;;;4903271;29;19914;-76
2022/07/16 00:06:00;;;;;;;;;;;18.40;72.10;;;;;;4902266;29;19907;-75
2022/07/16 00:08:26;;;;;;;;;;;18.40;72.40;;;;;;4886516;29;20361;-76
2022/07/16 00:10:52;;;;;;;;;;;18.40;72.70;;;;;;4901603;29;19914;-77
2022/07/16 00:13:21;;;;;;;;;;;18.30;72.80;;;;;;4897666;29;19922;-75
2022/07/16 00:15:48;;;;;;;;;;;18.30;72.80;;;;;;4902560;29;19918;-75
2022/07/16 00:21:00;;;;;;;;;;;18.30;73.10;;;;;;4897001;29;19934;-76
2022/07/16 00:23:31;;;;;;;;;;;18.30;73.10;;;;;;4883045;29;19910;-76
2022/07/16 00:25:56;;;;;;;;;;;18.30;73.20;;;;;;4893715;29;20388;-76
2022/07/16 00:28:24;;;;;;;;;;;18.30;73.30;;;;;;4902014;29;19916;-76
2022/07/16 00:30:52;;;;;;;;;;;18.20;73.20;;;;;;4884271;29;19910;-76
2022/07/16 00:33:18;;;;;;;;;;;18.20;73.30;;;;;;4901067;29;19911;-76
2022/07/16 00:35:46;;;;;;;;;;;18.20;73.80;;;;;;4879691;29;19914;-75
2022/07/16 00:38:19;;;;;;;;;;;18.10;73.80;;;;;;4900974;29;19938;-75
2022/07/16 00:40:45;;;;;;;;;;;18.10;74.00;;;;;;4898835;29;20357;-75
2022/07/16 00:43:20;;;;;;;;;;;18.00;74.10;;;;;;4896967;29;19907;-76
2022/07/16 00:45:51;;;;;;;;;;;18.00;74.00;;;;;;4883912;29;19907;-76
2022/07/16 00:48:16;;;;;;;;;;;18.00;74.20;;;;;;4902072;29;20566;-76
2022/07/16 00:50:46;;;;;;;;;;;17.90;74.50;;;;;;4884012;29;19907;-76
2022/07/16 00:53:13;;;;;;;;;;;17.90;74.50;;;;;;4895466;29;19915;-76
2022/07/16 00:55:40;;;;;;;;;;;17.90;75.00;;;;;;4900898;29;19949;-75
2022/07/16 00:58:10;;;;;;;;;;;17.90;74.90;;;;;;4901037;29;19954;-76
2022/07/16 01:00:35;;;;;;;;;;;17.90;74.60;;;;;;4898256;29;19926;-76
2022/07/16 01:03:03;;;;;;;;;;;17.90;74.70;;;;;;4900427;29;19907;-76
2022/07/16 01:05:30;;;;;;;;;;;17.90;75.30;;;;;;4882924;29;19922;-76
2022/07/16 01:08:04;;;;;;;;;;;17.90;74.80;;;;;;4899084;29;19922;-76
2022/07/16 01:10:29;;;;;;;;;;;17.80;74.70;;;;;;4905071;29;19922;-76
2022/07/16 01:12:57;;;;;;;;;;;17.80;74.80;;;;;;4900562;29;19919;-76
2022/07/16 01:15:24;;;;;;;;;;;17.90;75.00;;;;;;4883942;29;19923;-76
2022/07/16 01:17:51;;;;;;;;;;;17.80;75.00;;;;;;4887659;29;19962;-76
2022/07/16 01:20:17;;;;;;;;;;;17.90;74.90;;;;;;4895766;29;20270;-76
2022/07/16 01:22:45;;;;;;;;;;;17.90;75.10;;;;;;4898410;29;20412;-76
2022/07/16 01:25:13;;;;;;;;;;;17.90;74.60;;;;;;4883567;29;19914;-76
2022/07/16 01:27:44;;;;;;;;;;;17.90;74.40;;;;;;4900678;29;19911;-75
2022/07/16 01:30:11;;;;;;;;;;;17.90;74.60;;;;;;4899839;29;19907;-76
2022/07/16 01:32:40;;;;;;;;;;;17.90;74.80;;;;;;4895275;29;20671;-76
2022/07/16 01:35:06;;;;;;;;;;;17.80;75.00;;;;;;4901139;29;19981;-76
2022/07/16 01:37:33;;;;;;;;;;;17.80;74.80;;;;;;4900138;29;19946;-76
2022/07/16 01:39:58;;;;;;;;;;;17.80;74.80;;;;;;4904004;29;19923;-76
2022/07/16 01:42:24;;;;;;;;;;;17.80;74.80;;;;;;4907379;29;19922;-76
2022/07/16 01:44:51;;;;;;;;;;;17.70;74.60;;;;;;4884948;29;20036;-76
2022/07/16 01:47:20;;;;;;;;;;;17.70;74.60;;;;;;4903574;29;19914;-76
2022/07/16 01:49:48;;;;;;;;;;;17.70;74.80;;;;;;4883466;29;19942;-75
2022/07/16 01:52:17;;;;;;;;;;;17.60;75.20;;;;;;4898874;29;20464;-75
2022/07/16 01:54:51;;;;;;;;;;;17.60;75.20;;;;;;4884311;29;19918;-76
2022/07/16 01:57:17;;;;;;;;;;;17.60;74.90;;;;;;4881148;29;19907;-76
2022/07/16 01:59:43;;;;;;;;;;;17.60;75.20;;;;;;4902202;29;20361;-76
2022/07/16 02:02:08;;;;;;;;;;;17.60;75.40;;;;;;4880403;29;19911;-76
2022/07/16 02:04:37;;;;;;;;;;;17.60;75.50;;;;;;4905367;29;19907;-75
2022/07/16 02:07:03;;;;;;;;;;;17.60;75.50;;;;;;4900966;29;19974;-76
2022/07/16 02:09:29;;;;;;;;;;;17.60;75.30;;;;;;4899518;29;19919;-76
2022/07/16 02:11:54;;;;;;;;;;;17.60;75.30;;;;;;4895428;29;19922;-76
2022/07/16 02:14:20;;;;;;;;;;;17.60;75.10;;;;;;4880758;29;19915;-76
2022/07/16 02:16:45;;;;;;;;;;;17.60;75.20;;;;;;4895217;29;20441;-76
2022/07/16 02:19:19;;;;;;;;;;;17.60;75.60;;;;;;4900968;29;19998;-75
2022/07/16 02:21:46;;;;;;;;;;;17.60;76.00;;;;;;4904623;29;19962;-76
2022/07/16 02:24:12;;;;;;;;;;;17.50;75.80;;;;;;4898588;29;19917;-76
2022/07/16 02:26:37;;;;;;;;;;;17.50;76.10;;;;;;4889553;29;19923;-75
2022/07/16 02:29:03;;;;;;;;;;;17.40;76.20;;;;;;4899945;29;19911;-75
2022/07/16 02:31:28;;;;;;;;;;;17.40;76.20;;;;;;4884033;29;20225;-76
2022/07/16 02:33:55;;;;;;;;;;;17.40;76.40;;;;;;4900928;29;19934;-76
2022/07/16 02:36:20;;;;;;;;;;;17.40;76.10;;;;;;4878250;29;19915;-76
2022/07/16 02:38:47;;;;;;;;;;;17.40;76.10;;;;;;4902905;29;19930;-76
2022/07/16 02:41:13;;;;;;;;;;;17.40;75.70;;;;;;4884175;29;19923;-76
2022/07/16 02:43:40;;;;;;;;;;;17.40;75.90;;;;;;4904073;29;19911;-76
2022/07/16 02:46:06;;;;;;;;;;;17.30;76.20;;;;;;4902239;29;19907;-76
2022/07/16 02:48:32;;;;;;;;;;;17.30;76.20;;;;;;4904056;29;19927;-76
2022/07/16 02:51:00;;;;;;;;;;;17.30;77.30;;;;;;4897327;29;19997;-76
2022/07/16 02:53:33;;;;;;;;;;;17.20;76.50;;;;;;4885370;29;19927;-76
2022/07/16 02:55:59;;;;;;;;;;;17.20;77.10;;;;;;4904152;29;20014;-76
2022/07/16 02:58:26;;;;;;;;;;;17.10;77.40;;;;;;4903437;29;20001;-76
2022/07/16 03:00:51;;;;;;;;;;;17.10;77.00;;;;;;4882734;29;19950;-76
2022/07/16 03:03:19;;;;;;;;;;;17.10;77.50;;;;;;4905982;29;19961;-76
2022/07/16 03:05:46;;;;;;;;;;;17.10;77.60;;;;;;4883987;29;19993;-76
2022/07/16 03:08:11;;;;;;;;;;;17.20;77.60;;;;;;4889045;29;19906;-76
2022/07/16 03:10:39;;;;;;;;;;;17.20;77.70;;;;;;4902001;29;20764;-76
2022/07/16 03:13:09;;;;;;;;;;;17.20;77.80;;;;;;4902907;29;19911;-76
2022/07/16 03:15:35;;;;;;;;;;;17.20;77.80;;;;;;4900087;29;19910;-75
2022/07/16 03:18:02;;;;;;;;;;;17.10;77.80;;;;;;4903054;29;19907;-75
2022/07/16 03:20:27;;;;;;;;;;;17.10;77.80;;;;;;4901335;29;19915;-76
2022/07/16 03:22:54;;;;;;;;;;;17.10;78.00;;;;;;4901972;29;19951;-76
2022/07/16 03:25:21;;;;;;;;;;;17.10;78.00;;;;;;4880755;29;20298;-76
2022/07/16 03:27:55;;;;;;;;;;;17.10;78.20;;;;;;4902415;29;19911;-76
2022/07/16 03:30:20;;;;;;;;;;;17.10;78.50;;;;;;4880438;29;21333;-76
2022/07/16 03:32:46;;;;;;;;;;;17.20;78.40;;;;;;4885134;29;19942;-76
2022/07/16 03:35:14;;;;;;;;;;;17.20;77.90;;;;;;4887898;29;19907;-76
2022/07/16 03:40:43;;;;;;;;;;;17.30;78.60;;;;;;4878276;29;20356;-79
2022/07/16 03:43:11;;;;;;;;;;;17.30;78.90;;;;;;4899260;29;20010;-76
2022/07/16 03:45:38;;;;;;;;;;;17.20;79.10;;;;;;4901440;29;20373;-75
2022/07/16 03:48:04;;;;;;;;;;;17.20;80.00;;;;;;4898005;29;19907;-76
2022/07/16 03:50:30;;;;;;;;;;;17.20;79.70;;;;;;4901340;29;19914;-76
2022/07/16 03:52:57;;;;;;;;;;;17.30;79.80;;;;;;4897674;29;19919;-76
2022/07/16 03:55:24;;;;;;;;;;;17.30;80.40;;;;;;4884454;29;19927;-76
2022/07/16 03:57:50;;;;;;;;;;;17.30;80.30;;;;;;4900324;29;19911;-76
2022/07/16 04:00:18;;;;;;;;;;;17.30;80.20;;;;;;4882600;29;19930;-76
2022/07/16 04:02:43;;;;;;;;;;;17.40;80.30;;;;;;4901974;29;20412;-76
2022/07/16 04:05:15;;;;;;;;;;;17.40;80.90;;;;;;4901919;29;19918;-75
2022/07/16 04:07:43;;;;;;;;;;;17.40;80.90;;;;;;4892682;29;19947;-77
2022/07/16 04:10:13;;;;;;;;;;;17.40;81.00;;;;;;4883182;29;20025;-77
2022/07/16 04:12:42;;;;;;;;;;;17.40;81.30;;;;;;4885360;29;19915;-75
2022/07/16 04:15:08;;;;;;;;;;;17.50;81.80;;;;;;4886570;29;19958;-76
2022/07/16 04:17:43;;;;;;;;;;;17.50;81.80;;;;;;4885129;29;19914;-76
2022/07/16 04:20:09;;;;;;;;;;;17.50;82.80;;;;;;4885715;29;20009;-76
2022/07/16 04:22:35;;;;;;;;;;;17.50;82.70;;;;;;4902366;29;20005;-75
2022/07/16 04:25:01;;;;;;;;;;;17.60;82.70;;;;;;4895974;29;19914;-76
2022/07/16 04:27:28;;;;;;;;;;;17.60;81.90;;;;;;4900859;29;20317;-76
2022/07/16 04:30:00;;;;;;;;;;;17.70;82.60;;;;;;4899953;29;20029;-76
2022/07/16 04:32:27;;;;;;;;;;;17.70;82.20;;;;;;4896298;29;19918;-76
2022/07/16 04:35:02;;;;;;;;;;;17.80;81.90;;;;;;4883449;29;19974;-76
2022/07/16 04:37:34;;;;;;;;;;;18.00;81.30;;;;;;4901210;29;19908;-76
2022/07/16 04:40:00;;;;;;;;;;;18.10;81.40;;;;;;4884028;29;19938;-76
2022/07/16 04:42:29;;;;;;;;;;;18.10;81.50;;;;;;4905462;29;20372;-76
2022/07/16 04:44:55;;;;;;;;;;;18.30;81.10;;;;;;4883911;29;20291;-75
2022/07/16 04:47:23;;;;;;;;;;;18.50;80.30;;;;;;4900420;29;20012;-77
2022/07/16 04:49:51;;;;;;;;;;;18.60;80.70;;;;;;4903482;29;20006;-75
2022/07/16 04:52:18;;;;;;;;;;;18.70;79.10;;;;;;4901262;29;19914;-76
2022/07/16 04:54:43;;;;;;;;;;;18.70;77.90;;;;;;4881824;29;19926;-75
2022/07/16 04:57:09;;;;;;;;;;;18.80;77.70;;;;;;4878620;29;20308;-76
2022/07/16 04:59:35;;;;;;;;;;;18.90;75.40;;;;;;4899515;29;20376;-76
2022/07/16 05:04:56;;;;;;;;;;;19.20;81.80;;;;;;4904955;29;19922;-75
2022/07/16 05:07:22;;;;;;;;;;;19.20;78.20;;;;;;4900763;29;19943;-75
2022/07/16 05:09:52;;;;;;;;;;;19.20;78.70;;;;;;4884857;29;20304;-73
2022/07/16 05:12:18;;;;;;;;;;;19.30;80.10;;;;;;4900812;29;19914;-74
2022/07/16 05:14:46;;;;;;;;;;;19.60;79.30;;;;;;4908686;29;19923;-75
2022/07/16 05:17:15;;;;;;;;;;;19.80;76.50;;;;;;4882261;29;19914;-74
2022/07/16 05:19:41;;;;;;;;;;;20.10;74.70;;;;;;4902218;29;19934;-74
2022/07/16 05:22:06;;;;;;;;;;;20.10;71.70;;;;;;4886040;29;20292;-74
2022/07/16 05:24:32;;;;;;;;;;;20.40;72.30;;;;;;4904363;29;19978;-73
2022/07/16 05:27:02;;;;;;;;;;;20.50;72.10;;;;;;4904500;29;19907;-73
2022/07/16 05:29:28;;;;;;;;;;;20.60;71.20;;;;;;4904491;29;19947;-74
2022/07/16 05:31:57;;;;;;;;;;;20.80;70.30;;;;;;4885825;29;19922;-75
2022/07/16 05:34:25;;;;;;;;;;;20.90;70.40;;;;;;4908365;29;19945;-73
2022/07/16 05:36:50;;;;;;;;;;;21.00;67.80;;;;;;4887714;29;19953;-74
2022/07/16 05:39:16;;;;;;;;;;;21.00;67.50;;;;;;4903106;29;19946;-73
2022/07/16 05:41:43;;;;;;;;;;;20.80;68.50;;;;;;4899532;29;20324;-74
2022/07/16 05:44:10;;;;;;;;;;;20.90;69.00;;;;;;4900756;29;19911;-74
2022/07/16 05:46:35;;;;;;;;;;;21.30;66.10;;;;;;4903585;29;19907;-74
2022/07/16 05:49:03;;;;;;;;;;;21.50;66.20;;;;;;4900446;29;19906;-74
2022/07/16 05:51:29;;;;;;;;;;;22.00;64.20;;;;;;4902258;29;19970;-74
2022/07/16 05:53:57;;;;;;;;;;;22.60;62.60;;;;;;4886616;29;20009;-74
2022/07/16 05:56:23;;;;;;;;;;;22.70;61.50;;;;;;4886997;29;19911;-74
2022/07/16 05:58:49;;;;;;;;;;;23.20;60.70;;;;;;4899735;29;19985;-75
2022/07/16 06:01:23;;;;;;;;;;;23.30;60.40;;;;;;4902563;29;20349;-75
2022/07/16 06:03:50;;;;;;;;;;;24.00;59.30;;;;;;4902600;29;20574;-75
2022/07/16 06:06:17;;;;;;;;;;;24.10;57.70;;;;;;4902869;29;19907;-75
2022/07/16 06:08:43;;;;;;;;;;;24.10;59.00;;;;;;4903363;29;19907;-75
2022/07/16 06:11:09;;;;;;;;;;;25.60;55.90;;;;;;4882387;29;19994;-75
2022/07/16 06:13:44;;;;;;;;;;;26.80;53.80;;;;;;4906483;29;20002;-75
2022/07/16 06:16:11;;;;;;;;;;;26.80;53.80;;;;;;4900398;29;20364;-75
2022/07/16 06:18:41;;;;;;;;;;;27.80;51.40;;;;;;4886362;29;19914;-75
2022/07/16 06:21:07;;;;;;;;;;;28.10;50.60;;;;;;4901869;29;19911;-74
2022/07/16 06:23:37;;;;;;;;;;;28.10;51.00;;;;;;4883267;29;19959;-75
2022/07/16 06:26:09;;;;;;;;;;;27.80;50.20;;;;;;4908219;29;20349;-75
2022/07/16 06:28:35;;;;;;;;;;;27.40;50.70;;;;;;4883717;29;19990;-74
2022/07/16 06:31:02;;;;;;;;;;;27.40;50.90;;;;;;4902903;29;20045;-74
2022/07/16 06:36:05;;;;;;;;;;;27.00;51.20;;;;;;4900515;29;19934;-75
2022/07/16 06:38:39;;;;;;;;;;;27.00;51.90;;;;;;4898148;29;20201;-74
2022/07/16 06:41:05;;;;;;;;;;;27.60;51.40;;;;;;4906231;29;19971;-75
2022/07/16 06:43:34;;;;;;;;;;;27.50;51.20;;;;;;4875655;29;19914;-75
2022/07/16 06:46:01;;;;;;;;;;;28.20;49.90;;;;;;4901384;29;19907;-75
2022/07/16 06:48:29;;;;;;;;;;;28.60;48.30;;;;;;4898845;29;19915;-76
2022/07/16 06:50:57;;;;;;;;;;;28.80;48.40;;;;;;4890719;29;19928;-75
2022/07/16 06:53:28;;;;;;;;;;;28.20;48.80;;;;;;4902208;29;19923;-74
2022/07/16 06:55:53;;;;;;;;;;;28.50;47.80;;;;;;4898753;29;19977;-75
2022/07/16 06:58:23;;;;;;;;;;;29.20;46.60;;;;;;4901156;29;19907;-75
2022/07/16 07:00:53;;;;;;;;;;;29.30;46.70;;;;;;4899444;29;19911;-75
2022/07/16 07:03:19;;;;;;;;;;;30.10;45.90;;;;;;4899727;29;20360;-75
2022/07/16 07:05:48;;;;;;;;;;;30.30;46.10;;;;;;4882539;29;19914;-77
2022/07/16 07:08:14;;;;;;;;;;;30.30;46.50;;;;;;4891867;29;19915;-76
2022/07/16 07:10:39;;;;;;;;;;;30.30;46.30;;;;;;4896623;29;19911;-76
2022/07/16 07:13:05;;;;;;;;;;;30.20;46.70;;;;;;4896841;29;20363;-76
2022/07/16 07:15:33;;;;;;;;;;;30.50;46.40;;;;;;4880289;29;19911;-76
2022/07/16 07:18:01;;;;;;;;;;;30.80;46.20;;;;;;4882573;29;19954;-76
2022/07/16 07:20:30;;;;;;;;;;;30.70;45.60;;;;;;4883013;29;19915;-76
2022/07/16 07:22:56;;;;;;;;;;;30.30;46.20;;;;;;4877523;29;19928;-76
2022/07/16 07:25:25;;;;;;;;;;;31.10;45.90;;;;;;4886221;29;19913;-76
2022/07/16 07:27:51;;;;;;;;;;;31.40;45.10;;;;;;4901096;29;19914;-76
2022/07/16 07:30:19;;;;;;;;;;;32.20;44.60;;;;;;4897545;29;19906;-76
2022/07/16 07:32:44;;;;;;;;;;;32.70;43.80;;;;;;4901391;29;20503;-76
2022/07/16 07:35:11;;;;;;;;;;;32.90;43.70;;;;;;4897409;29;19925;-76
2022/07/16 07:37:40;;;;;;;;;;;33.10;43.30;;;;;;4899141;29;19963;-76
2022/07/16 07:40:07;;;;;;;;;;;33.60;43.60;;;;;;4898612;29;19958;-76
2022/07/16 07:42:32;;;;;;;;;;;32.50;42.90;;;;;;4896278;29;20312;-76
2022/07/16 07:45:04;;;;;;;;;;;32.00;44.50;;;;;;4882837;29;19959;-76
2022/07/16 07:47:31;;;;;;;;;;;32.50;43.80;;;;;;4901438;29;19919;-75
2022/07/16 07:49:57;;;;;;;;;;;32.50;43.90;;;;;;4896850;29;20582;-76
2022/07/16 07:52:24;;;;;;;;;;;32.90;43.90;;;;;;4899201;29;19915;-79
2022/07/16 07:54:51;;;;;;;;;;;32.10;43.90;;;;;;4877113;29;19941;-78
2022/07/16 07:57:40;;;;;;;;;;;32.10;44.60;;;;;;4897694;29;19914;-81
2022/07/16 08:00:08;;;;;;;;;;;31.20;45.10;;;;;;4895220;29;19910;-80
2022/07/16 08:02:35;;;;;;;;;;;32.00;45.10;;;;;;4894767;29;20272;-78
2022/07/16 08:05:08;;;;;;;;;;;32.60;44.70;;;;;;4899612;29;19917;-78
2022/07/16 08:07:50;;;;;;;;;;;31.70;44.10;;;;;;4901029;29;19907;-78
2022/07/16 08:10:20;;;;;;;;;;;32.10;44.90;;;;;;4897718;29;20454;-78
2022/07/16 08:12:53;;;;;;;;;;;32.30;44.90;;;;;;4897719;29;19911;-79
2022/07/16 08:15:19;;;;;;;;;;;32.20;43.60;;;;;;4884625;29;20344;-76
2022/07/16 08:17:48;;;;;;;;;;;31.60;45.10;;;;;;4877934;29;19907;-76
2022/07/16 08:20:16;;;;;;;;;;;29.70;46.50;;;;;;4900955;29;20360;-76
2022/07/16 08:22:46;;;;;;;;;;;30.30;47.20;;;;;;4893148;29;19907;-76
2022/07/16 08:28:02;;;;;;;;;;;33.90;43.50;;;;;;4898593;29;19930;-76
2022/07/16 08:30:30;;;;;;;;;;;34.80;42.70;;;;;;4894397;29;19911;-76
2022/07/16 08:32:57;;;;;;;;;;;35.00;42.20;;;;;;4899579;29;19982;-76
2022/07/16 08:35:23;;;;;;;;;;;35.20;42.30;;;;;;4904690;29;19934;-76
2022/07/16 08:37:51;;;;;;;;;;;34.80;42.70;;;;;;4896434;29;19907;-76
2022/07/16 08:40:20;;;;;;;;;;;34.90;42.40;;;;;;4893229;29;19947;-76
2022/07/16 08:42:46;;;;;;;;;;;36.00;41.40;;;;;;4897252;29;20586;-72
2022/07/16 08:45:12;;;;;;;;;;;34.30;42.70;;;;;;4902081;29;19907;-72
2022/07/16 08:47:38;;;;;;;;;;;34.10;43.30;;;;;;4901845;29;19922;-72
2022/07/16 08:50:08;;;;;;;;;;;35.10;42.70;;;;;;4903710;29;19907;-72
2022/07/16 08:52:36;;;;;;;;;;;35.00;42.10;;;;;;4901443;29;19915;-72
2022/07/16 08:55:02;;;;;;;;;;;35.30;41.40;;;;;;4900029;29;19912;-72
2022/07/16 08:57:28;;;;;;;;;;;32.60;42.70;;;;;;4903030;29;20018;-72
2022/07/16 08:59:54;;;;;;;;;;;32.70;44.90;;;;;;4902303;29;19915;-72
2022/07/16 09:02:19;;;;;;;;;;;35.10;43.40;;;;;;4879509;29;19970;-72
2022/07/16 09:04:46;;;;;;;;;;;36.10;42.10;;;;;;4900308;29;19983;-72
2022/07/16 09:07:12;;;;;;;;;;;37.50;41.70;;;;;;4893335;29;19911;-72
2022/07/16 09:09:38;;;;;;;;;;;37.50;41.00;;;;;;4880463;29;20460;-72
2022/07/16 09:12:04;;;;;;;;;;;36.90;41.80;;;;;;4902227;29;19913;-73
2022/07/16 09:14:29;;;;;;;;;;;37.80;40.70;;;;;;4903615;29;19907;-73
2022/07/16 09:16:55;;;;;;;;;;;38.50;39.90;;;;;;4894928;29;19911;-72
2022/07/16 09:19:24;;;;;;;;;;;38.70;40.20;;;;;;4896512;29;21369;-72
2022/07/16 09:22:00;;;;;;;;;;;39.10;40.20;;;;;;4901512;29;19911;-72
2022/07/16 09:24:36;;;;;;;;;;;39.40;39.30;;;;;;4902119;29;19915;-72
2022/07/16 09:27:06;;;;;;;;;;;38.90;38.90;;;;;;4904809;29;20392;-72
2022/07/16 09:29:52;;;;;;;;;;;38.20;39.40;;;;;;4884626;29;19918;-73
2022/07/16 09:32:30;;;;;;;;;;;38.50;39.20;;;;;;4898725;29;19918;-72
2022/07/16 09:35:05;;;;;;;;;;;38.70;39.30;;;;;;4903242;29;20058;-72
2022/07/16 09:37:51;;;;;;;;;;;39.10;38.80;;;;;;4897520;29;19918;-72
2022/07/16 09:40:29;;;;;;;;;;;39.10;39.50;;;;;;4897199;29;20622;-72
2022/07/16 09:42:54;;;;;;;;;;;38.70;38.40;;;;;;4900582;29;20855;-72
2022/07/16 09:45:20;;;;;;;;;;;39.20;38.90;;;;;;4902050;29;19915;-72
2022/07/16 09:47:46;;;;;;;;;;;39.60;39.00;;;;;;4894864;29;20374;-72
2022/07/16 09:50:12;;;;;;;;;;;40.40;38.00;;;;;;4898234;29;19910;-72
2022/07/16 09:52:39;;;;;;;;;;;40.70;37.30;;;;;;4899043;29;19919;-72
2022/07/16 09:55:06;;;;;;;;;;;39.40;37.30;;;;;;4894134;29;19946;-71
2022/07/16 09:57:31;;;;;;;;;;;38.20;39.10;;;;;;4901383;29;19923;-71
2022/07/16 09:59:57;;;;;;;;;;;38.50;38.50;;;;;;4898961;29;19911;-72
2022/07/16 10:02:23;;;;;;;;;;;39.10;38.70;;;;;;4897883;29;19926;-71
2022/07/16 10:04:49;;;;;;;;;;;38.80;37.80;;;;;;4899949;29;19930;-71
2022/07/16 10:07:16;;;;;;;;;;;37.40;39.60;;;;;;4893341;29;19990;-71
2022/07/16 10:09:43;;;;;;;;;;;37.90;39.10;;;;;;4898733;29;19911;-71
2022/07/16 10:12:11;;;;;;;;;;;38.50;39.30;;;;;;4899142;29;19915;-71
2022/07/16 10:14:39;;;;;;;;;;;37.90;39.30;;;;;;4893999;29;20211;-71
2022/07/16 10:17:13;;;;;;;;;;;38.20;40.00;;;;;;4903021;29;20411;-71
2022/07/16 10:19:38;;;;;;;;;;;38.80;39.40;;;;;;4900305;29;20352;-71
2022/07/16 10:22:13;;;;;;;;;;;39.20;39.00;;;;;;4899489;29;19911;-71
2022/07/16 10:24:48;;;;;;;;;;;39.60;39.00;;;;;;4899734;29;19954;-72
2022/07/16 10:27:18;;;;;;;;;;;39.40;38.80;;;;;;4899127;29;19942;-72
2022/07/16 10:29:43;;;;;;;;;;;39.60;38.60;;;;;;4897551;29;19973;-72
2022/07/16 10:32:30;;;;;;;;;;;39.80;37.80;;;;;;4899726;29;20329;-71
2022/07/16 10:34:58;;;;;;;;;;;39.90;37.80;;;;;;4902374;29;19923;-72
2022/07/16 10:37:25;;;;;;;;;;;39.50;37.90;;;;;;4900802;29;19949;-71
2022/07/16 10:40:06;;;;;;;;;;;39.40;38.20;;;;;;4887710;29;20444;-71
2022/07/16 10:42:32;;;;;;;;;;;39.60;38.30;;;;;;4898140;29;19934;-71
2022/07/16 10:44:58;;;;;;;;;;;39.90;38.20;;;;;;4894637;29;19918;-71
2022/07/16 10:47:41;;;;;;;;;;;39.50;39.20;;;;;;4901519;29;19914;-71
2022/07/16 10:50:17;;;;;;;;;;;39.50;38.80;;;;;;4897742;29;19975;-72
2022/07/16 10:52:45;;;;;;;;;;;39.10;39.10;;;;;;4896936;29;20383;-72
2022/07/16 10:55:16;;;;;;;;;;;38.70;39.60;;;;;;4895303;29;19914;-72
2022/07/16 10:57:43;;;;;;;;;;;38.90;39.70;;;;;;4895924;29;19935;-72
2022/07/16 11:00:09;;;;;;;;;;;38.90;39.20;;;;;;4898390;29;19927;-72
2022/07/16 11:02:38;;;;;;;;;;;38.50;39.00;;;;;;4892337;29;19911;-72
2022/07/16 11:05:04;;;;;;;;;;;37.30;40.30;;;;;;4899439;29;20613;-72
2022/07/16 11:07:33;;;;;;;;;;;36.00;41.50;;;;;;4883227;29;19915;-81
2022/07/16 11:10:18;;;;;;;;;;;34.50;42.80;;;;;;4903354;29;19969;-75
2022/07/16 11:12:52;;;;;;;;;;;33.40;46.20;;;;;;4900424;29;19911;-76
2022/07/16 11:15:20;;;;;;;;;;;32.60;45.90;;;;;;4893451;29;19934;-77
2022/07/16 11:17:53;;;;;;;;;;;32.00;46.60;;;;;;4902517;29;19914;-78
2022/07/16 11:20:20;;;;;;;;;;;31.00;47.40;;;;;;4884776;29;19907;-76
2022/07/16 11:22:47;;;;;;;;;;;30.60;48.70;;;;;;4881935;29;19908;-76
2022/07/16 11:25:13;;;;;;;;;;;30.00;49.00;;;;;;4900642;29;19941;-75
2022/07/16 11:27:43;;;;;;;;;;;30.20;48.50;;;;;;4899743;29;19908;-75
2022/07/16 11:30:10;;;;;;;;;;;30.10;48.50;;;;;;4885335;29;19911;-75
2022/07/16 11:32:44;;;;;;;;;;;30.20;49.10;;;;;;4899687;29;19946;-76
2022/07/16 11:35:10;;;;;;;;;;;30.30;48.80;;;;;;4896501;29;20277;-74
2022/07/16 11:37:53;;;;;;;;;;;29.80;49.60;;;;;;4898882;29;19998;-76
2022/07/16 11:40:19;;;;;;;;;;;29.80;48.70;;;;;;4877598;29;19914;-74
2022/07/16 11:43:00;;;;;;;;;;;29.90;48.70;;;;;;4885449;29;19907;-75
2022/07/16 11:45:32;;;;;;;;;;;29.80;49.00;;;;;;4903274;29;20134;-76
2022/07/16 11:48:20;;;;;;;;;;;29.90;49.00;;;;;;4899623;29;19965;-78
2022/07/16 11:50:47;;;;;;;;;;;29.80;48.20;;;;;;4895519;29;19962;-84
2022/07/16 11:53:29;;;;;;;;;;;29.80;48.10;;;;;;4903526;29;19915;-80
2022/07/16 11:55:54;;;;;;;;;;;29.80;48.30;;;;;;4883722;29;19907;-82
2022/07/16 11:58:21;;;;;;;;;;;30.00;48.70;;;;;;4899422;29;21400;-77
2022/07/16 12:00:49;;;;;;;;;;;30.30;48.40;;;;;;4901606;29;19933;-75
2022/07/16 12:03:27;;;;;;;;;;;30.20;46.70;;;;;;4900546;29;19911;-82
2022/07/16 12:06:01;;;;;;;;;;;29.90;46.80;;;;;;4885747;29;19910;-89
2022/07/16 12:08:29;;;;;;;;;;;29.70;47.60;;;;;;4901917;29;19919;-82
2022/07/16 12:11:03;;;;;;;;;;;29.70;47.60;;;;;;4897776;29;19934;-82
2022/07/16 12:13:29;;;;;;;;;;;29.50;48.20;;;;;;4898801;29;19911;-82
2022/07/16 12:15:55;;;;;;;;;;;29.50;47.70;;;;;;4878412;29;19969;-82
2022/07/16 12:18:21;;;;;;;;;;;29.30;47.30;;;;;;4896391;29;20653;-78
2022/07/16 12:20:50;;;;;;;;;;;29.20;47.70;;;;;;4882070;29;19907;-79
2022/07/16 12:23:38;;;;;;;;;;;29.20;49.20;;;;;;4899187;29;20587;-79
2022/07/16 12:26:04;;;;;;;;;;;29.30;48.50;;;;;;4878964;29;20360;-78
2022/07/16 12:28:31;;;;;;;;;;;29.40;47.80;;;;;;4902462;29;19911;-80
2022/07/16 12:31:01;;;;;;;;;;;28.70;48.90;;;;;;4900735;29;19977;-79
2022/07/16 12:33:29;;;;;;;;;;;29.10;48.50;;;;;;4889334;29;19919;-80
2022/07/16 12:36:04;;;;;;;;;;;29.50;47.50;;;;;;4884857;29;19923;-82
2022/07/16 12:38:59;;;;;;;;;;;29.80;47.50;;;;;;4898214;29;19958;-78
2022/07/16 12:41:26;;;;;;;;;;;29.90;47.20;;;;;;4903558;29;19915;-80
2022/07/16 12:43:54;;;;;;;;;;;29.90;46.70;;;;;;4898432;29;19907;-81
2022/07/16 12:46:22;;;;;;;;;;;30.10;47.30;;;;;;4889192;29;19911;-80
2022/07/16 12:49:00;;;;;;;;;;;30.00;47.40;;;;;;4884893;29;19908;-82
2022/07/16 12:51:34;;;;;;;;;;;30.00;47.40;;;;;;4899144;29;19954;-82
2022/07/16 12:54:13;;;;;;;;;;;30.00;47.90;;;;;;4901949;29;19922;-79
2022/07/16 12:59:45;;;;;;;;;;;30.20;47.70;;;;;;4898742;29;19918;-80
2022/07/16 13:02:12;;;;;;;;;;;30.10;47.90;;;;;;4899474;29;19942;-82
2022/07/16 13:04:40;;;;;;;;;;;30.10;48.00;;;;;;4897380;29;19911;-80
2022/07/16 13:07:10;;;;;;;;;;;29.90;47.60;;;;;;4900376;29;19942;-78
2022/07/16 13:09:36;;;;;;;;;;;29.80;47.80;;;;;;4874443;29;19907;-79
2022/07/16 13:12:01;;;;;;;;;;;29.80;48.00;;;;;;4904705;29;19918;-80
2022/07/16 13:14:29;;;;;;;;;;;29.60;48.50;;;;;;4887004;29;20316;-79
2022/07/16 13:17:05;;;;;;;;;;;29.70;48.70;;;;;;4894145;29;19939;-79
2022/07/16 13:19:37;;;;;;;;;;;29.80;48.10;;;;;;4899096;29;19934;-80
2022/07/16 13:22:12;;;;;;;;;;;29.90;47.90;;;;;;4897433;29;20001;-81
2022/07/16 13:24:44;;;;;;;;;;;29.90;47.90;;;;;;4892866;29;19916;-80
2022/07/16 13:27:18;;;;;;;;;;;29.80;47.50;;;;;;4902143;29;20076;-79
2022/07/16 13:29:44;;;;;;;;;;;29.60;47.90;;;;;;4901141;29;20395;-78
2022/07/16 13:32:15;;;;;;;;;;;29.50;48.50;;;;;;4904483;29;19907;-80
2022/07/16 13:34:41;;;;;;;;;;;29.50;48.50;;;;;;4880766;29;19946;-79
2022/07/16 13:37:07;;;;;;;;;;;29.60;48.20;;;;;;4883582;29;20345;-79
2022/07/16 13:39:35;;;;;;;;;;;29.50;48.40;;;;;;4903670;29;19911;-79
2022/07/16 13:42:01;;;;;;;;;;;29.50;48.10;;;;;;4899812;29;20010;-79
2022/07/16 13:44:27;;;;;;;;;;;29.60;48.40;;;;;;4899977;29;20014;-80
2022/07/16 13:47:00;;;;;;;;;;;29.40;48.30;;;;;;4898914;29;19948;-81
2022/07/16 13:49:25;;;;;;;;;;;29.50;48.40;;;;;;4884094;29;19942;-80
2022/07/16 13:52:01;;;;;;;;;;;29.50;47.90;;;;;;4901103;29;19954;-80
2022/07/16 13:54:33;;;;;;;;;;;29.40;48.20;;;;;;4897393;29;19970;-79
2022/07/16 13:59:55;;;;;;;;;;;29.20;47.80;;;;;;4900159;29;20691;-79
2022/07/16 14:02:31;;;;;;;;;;;28.90;47.40;;;;;;4901555;29;20030;-79
2022/07/16 14:05:00;;;;;;;;;;;28.60;48.00;;;;;;4902927;29;19990;-80
2022/07/16 14:07:39;;;;;;;;;;;28.50;48.00;;;;;;4899206;29;20018;-79
2022/07/16 14:10:07;;;;;;;;;;;28.40;47.80;;;;;;4901452;29;20385;-79
2022/07/16 14:12:33;;;;;;;;;;;28.40;48.60;;;;;;4904137;29;19911;-80
2022/07/16 14:15:00;;;;;;;;;;;28.40;48.70;;;;;;4902370;29;19907;-82
2022/07/16 14:17:26;;;;;;;;;;;28.50;49.30;;;;;;4883196;29;19913;-83
2022/07/16 14:19:53;;;;;;;;;;;28.60;48.20;;;;;;4882356;29;19963;-83
2022/07/16 14:22:19;;;;;;;;;;;28.60;48.20;;;;;;4901805;29;19907;-81
2022/07/16 14:24:47;;;;;;;;;;;28.70;47.80;;;;;;4883725;29;19914;-81
2022/07/16 14:27:14;;;;;;;;;;;28.70;47.70;;;;;;4896354;29;19998;-81
2022/07/16 14:29:47;;;;;;;;;;;28.80;48.50;;;;;;4905252;29;19913;-81
2022/07/16 14:32:24;;;;;;;;;;;28.90;47.40;;;;;;4900667;29;20493;-80
2022/07/16 14:34:50;;;;;;;;;;;28.90;47.20;;;;;;4896490;29;19961;-81
2022/07/16 14:37:20;;;;;;;;;;;28.80;47.20;;;;;;4900998;29;19969;-79
2022/07/16 14:39:46;;;;;;;;;;;28.80;47.30;;;;;;4897863;29;20348;-80
2022/07/16 14:42:11;;;;;;;;;;;28.80;47.70;;;;;;4880925;29;19990;-80
2022/07/16 14:44:37;;;;;;;;;;;28.90;47.40;;;;;;4883659;29;20010;-79
2022/07/16 14:47:03;;;;;;;;;;;28.90;48.00;;;;;;4900478;29;19907;-83